createdAt,value
2023-04-02T00:02:34.156Z,51.52
2023-04-02T00:06:45.316Z,49.32
2023-04-02T00:10:50.427Z,49.45
2023-04-02T00:14:54.765Z,50.38
2023-04-02T00:19:01.364Z,48.95
2023-04-02T00:23:03.492Z,48.93
2023-04-02T00:27:10.292Z,48.25
2023-04-02T00:31:12.253Z,49.16
2023-04-02T00:35:23.008Z,49.59
2023-04-02T00:39:28.448Z,49.89
2023-04-02T00:43:34.628Z,50.25
2023-04-02T00:47:40.163Z,51.26
2023-04-02T00:51:54.516Z,50.89
2023-04-02T00:55:58.880Z,51.51
2023-04-02T01:00:12.021Z,51.96
2023-04-02T01:04:56.958Z,52.77
2023-04-02T01:09:44.007Z,54.29
2023-04-02T01:14:13.551Z,51.56
2023-04-02T01:18:46.269Z,55.66
2023-04-02T01:22:55.749Z,51.93
2023-04-02T01:27:14.011Z,55.18
2023-04-02T01:31:16.431Z,54.22
2023-04-02T01:35:18.122Z,54.85
2023-04-02T01:39:19.388Z,54.23
2023-04-02T01:43:26.173Z,51.72
2023-04-02T01:47:29.572Z,52.91
2023-04-02T01:51:33.835Z,54.97
2023-04-02T01:55:48.756Z,52.47
2023-04-02T01:59:50.336Z,53.52
2023-04-02T02:03:52.910Z,51.96
2023-04-02T02:07:57.157Z,50.47
2023-04-02T02:11:59.863Z,51.12
2023-04-02T02:16:03.194Z,51.61
2023-04-02T02:20:11.252Z,50.97
2023-04-02T02:24:21.120Z,50.98
2023-04-02T02:28:31.208Z,52.95
2023-04-02T02:32:34.139Z,52.07
2023-04-02T02:36:49.034Z,55.18
2023-04-02T02:40:59.924Z,51.85
2023-04-02T02:45:05.287Z,49.99
2023-04-02T02:49:07.679Z,49.57
2023-04-02T02:53:24.957Z,52.74
2023-04-02T02:57:31.845Z,53.51
2023-04-02T03:01:33.602Z,51.83
2023-04-02T03:05:36.066Z,54.00
2023-04-02T03:09:54.298Z,52.85
2023-04-02T03:14:08.092Z,49.51
2023-04-02T03:18:16.242Z,51.43
2023-04-02T03:22:32.054Z,51.70
2023-04-02T03:26:40.624Z,53.28
2023-04-02T03:30:51.036Z,53.12
2023-04-02T03:34:57.725Z,51.94
2023-04-02T03:39:19.445Z,52.68
2023-04-02T03:43:25.415Z,49.26
2023-04-02T03:47:40.076Z,49.14
2023-04-02T03:51:57.972Z,55.31
2023-04-02T03:56:01.008Z,49.86
2023-04-02T04:00:45.415Z,51.69
2023-04-02T04:04:48.776Z,51.28
2023-04-02T04:08:59.203Z,50.94
2023-04-02T04:13:12.827Z,53.75
2023-04-02T04:17:30.373Z,52.79
2023-04-02T04:21:37.287Z,50.82
2023-04-02T04:25:40.102Z,53.86
2023-04-02T04:29:57.704Z,52.40
2023-04-02T04:34:05.605Z,54.23
2023-04-02T04:38:09.937Z,52.11
2023-04-02T04:42:22.981Z,52.37
2023-04-02T04:46:30.919Z,51.16
2023-04-02T04:50:38.184Z,50.94
2023-04-02T04:54:39.825Z,52.36
2023-04-02T04:58:46.207Z,51.68
2023-04-02T05:02:54.208Z,54.65
2023-04-02T05:07:09.208Z,50.97
2023-04-02T05:11:19.488Z,54.21
2023-04-02T05:15:30.171Z,52.32
2023-04-02T05:19:42.180Z,52.22
2023-04-02T05:23:52.651Z,50.22
2023-04-02T05:28:17.708Z,51.22
2023-04-02T05:32:25.841Z,52.24
2023-04-02T05:36:30.022Z,54.60
2023-04-02T05:40:46.270Z,52.87
2023-04-02T05:45:19.155Z,49.45
2023-04-02T05:49:28.787Z,50.12
2023-04-02T05:53:30.101Z,51.62
2023-04-02T05:57:44.534Z,51.00
2023-04-02T06:01:58.862Z,50.93
2023-04-02T06:06:06.795Z,53.08
2023-04-02T06:10:11.866Z,52.99
2023-04-02T06:14:14.871Z,51.62
2023-04-02T06:18:25.611Z,52.11
2023-04-02T06:22:38.138Z,49.58
2023-04-02T06:26:43.388Z,50.29
2023-04-02T06:30:45.811Z,49.95
2023-04-02T06:34:47.235Z,50.63
2023-04-02T06:38:50.780Z,49.49
2023-04-02T06:42:59.428Z,48.70
2023-04-02T06:47:11.301Z,48.10
2023-04-02T06:51:17.589Z,50.07
2023-04-02T06:55:47.132Z,51.80
2023-04-02T06:59:51.086Z,51.15
2023-04-02T07:03:52.957Z,51.03
2023-04-02T07:07:54.420Z,54.68
2023-04-02T07:11:55.824Z,49.05
2023-04-02T07:15:57.316Z,52.46
2023-04-02T07:19:59.095Z,51.61
2023-04-02T07:24:00.608Z,52.31
2023-04-02T07:28:01.947Z,51.25
2023-04-02T07:32:03.323Z,51.04
2023-04-02T07:36:05.004Z,51.83
2023-04-02T07:40:15.507Z,50.85
2023-04-02T07:44:16.979Z,52.68
2023-04-02T07:48:18.545Z,50.67
2023-04-02T07:52:21.601Z,48.70
2023-04-02T07:56:24.923Z,48.53
2023-04-02T08:00:28.541Z,47.90
2023-04-02T08:04:30.286Z,51.21
2023-04-02T08:08:31.743Z,48.04
2023-04-02T08:12:33.213Z,50.04
2023-04-02T08:16:49.243Z,49.82
2023-04-02T08:20:50.941Z,49.70
2023-04-02T08:24:52.330Z,47.61
2023-04-02T08:28:53.700Z,47.81
2023-04-02T08:32:55.214Z,51.55
2023-04-02T08:36:58.057Z,49.64
2023-04-02T08:41:02.704Z,46.55
2023-04-02T08:45:27.882Z,46.83
2023-04-02T08:49:35.841Z,49.37
2023-04-02T08:53:39.112Z,48.30
2023-04-02T08:57:57.488Z,49.31
2023-04-02T09:02:21.220Z,46.99
2023-04-02T09:06:22.943Z,51.30
2023-04-02T09:10:37.132Z,48.46
2023-04-02T09:14:59.946Z,48.37
2023-04-02T09:19:02.115Z,47.38
2023-04-02T09:23:03.591Z,44.10
2023-04-02T09:27:17.883Z,45.75
2023-04-02T09:31:30.613Z,48.25
2023-04-02T09:35:37.084Z,45.80
2023-04-02T09:39:38.529Z,45.47
2023-04-02T09:43:40.012Z,45.46
2023-04-02T09:47:42.454Z,45.84
2023-04-02T09:51:43.938Z,49.54
2023-04-02T09:55:45.308Z,48.50
2023-04-02T09:59:46.706Z,47.12
2023-04-02T10:03:48.121Z,44.72
2023-04-02T10:07:52.972Z,46.22
2023-04-02T10:11:55.783Z,44.70
2023-04-02T10:16:07.049Z,45.26
2023-04-02T10:20:21.017Z,48.99
2023-04-02T10:24:23.300Z,45.12
2023-04-02T10:28:42.897Z,45.83
2023-04-02T10:32:57.570Z,48.00
2023-04-02T10:37:11.104Z,45.31
2023-04-02T10:41:34.919Z,43.63
2023-04-02T10:45:49.985Z,43.56
2023-04-02T10:50:06.768Z,42.52
2023-04-02T10:54:27.995Z,43.89
2023-04-02T10:58:35.274Z,43.55
2023-04-02T11:03:08.124Z,43.47
2023-04-02T11:07:17.203Z,43.11
2023-04-02T11:11:27.690Z,42.84
2023-04-02T11:15:32.981Z,42.73
2023-04-02T11:19:36.010Z,42.64
2023-04-02T11:23:57.037Z,43.27
2023-04-02T11:28:13.805Z,41.53
2023-04-02T11:32:25.285Z,42.84
2023-04-02T11:36:54.864Z,44.57
2023-04-02T11:40:56.825Z,41.18
2023-04-02T11:45:24.530Z,42.11
2023-04-02T11:49:32.190Z,45.53
2023-04-02T11:53:34.951Z,42.38
2023-04-02T11:57:45.306Z,43.30
2023-04-02T12:02:24.592Z,39.84
2023-04-02T12:07:26.765Z,42.19
2023-04-02T12:11:40.272Z,40.57
2023-04-02T12:15:46.357Z,41.06
2023-04-02T12:19:53.588Z,41.97
2023-04-02T12:23:58.714Z,43.36
2023-04-02T12:28:10.650Z,40.93
2023-04-02T12:32:27.690Z,42.17
2023-04-02T12:36:31.766Z,40.58
2023-04-02T12:40:33.069Z,43.37
2023-04-02T12:44:34.459Z,40.70
2023-04-02T12:48:36.357Z,44.30
2023-04-02T12:52:45.184Z,43.43
2023-04-02T12:56:50.654Z,37.28
2023-04-02T13:00:52.260Z,44.29
2023-04-02T13:04:55.931Z,42.81
2023-04-02T13:08:58.734Z,41.71
2023-04-02T13:13:03.177Z,41.02
2023-04-02T13:17:44.543Z,41.36
2023-04-02T13:21:46.207Z,41.07
2023-04-02T13:25:47.900Z,41.25
2023-04-02T13:29:52.255Z,39.40
2023-04-02T13:33:53.593Z,44.05
2023-04-02T13:37:54.959Z,43.78
2023-04-02T13:41:58.696Z,40.57
2023-04-02T13:46:02.225Z,42.16
2023-04-02T13:50:03.718Z,39.46
2023-04-02T13:54:15.926Z,39.54
2023-04-02T13:58:18.913Z,40.79
2023-04-02T14:02:24.559Z,40.51
2023-04-02T14:06:44.602Z,38.57
2023-04-02T14:11:04.511Z,39.71
2023-04-02T14:15:24.059Z,38.78
2023-04-02T14:19:43.584Z,39.00
2023-04-02T14:24:08.812Z,39.87
2023-04-02T14:28:16.688Z,39.12
2023-04-02T14:32:33.067Z,39.17
2023-04-02T14:36:34.385Z,40.90
2023-04-02T14:40:52.531Z,40.17
2023-04-02T14:45:29.120Z,37.82
2023-04-02T14:49:39.564Z,38.81
2023-04-02T14:54:07.306Z,37.70
2023-04-02T14:58:18.760Z,37.05
2023-04-02T15:02:30.467Z,38.16
2023-04-02T15:06:37.853Z,38.81
2023-04-02T15:10:47.728Z,39.50
2023-04-02T15:14:55.772Z,40.35
2023-04-02T15:19:01.743Z,39.91
2023-04-02T15:23:19.852Z,39.76
2023-04-02T15:27:56.018Z,38.24
2023-04-02T15:32:17.338Z,38.12
2023-04-02T15:36:39.545Z,38.67
2023-04-02T15:41:00.360Z,38.10
2023-04-02T15:45:08.210Z,37.70
2023-04-02T15:49:20.094Z,37.55
2023-04-02T15:53:39.019Z,37.76
2023-04-02T15:58:13.980Z,38.34
2023-04-02T16:02:46.256Z,37.74
2023-04-02T16:07:19.043Z,36.99
2023-04-02T16:11:21.026Z,38.00
2023-04-02T16:15:30.447Z,36.61
2023-04-02T16:19:52.778Z,39.53
2023-04-02T16:23:54.155Z,39.24
2023-04-02T16:28:13.704Z,34.96
2023-04-02T16:32:18.026Z,37.44
2023-04-02T16:36:25.444Z,35.99
2023-04-02T16:40:31.938Z,36.40
2023-04-02T16:44:57.312Z,37.97
2023-04-02T16:49:12.243Z,36.50
2023-04-02T16:53:33.953Z,35.52
2023-04-02T16:57:57.462Z,36.77
2023-04-02T17:02:09.231Z,37.72
2023-04-02T17:06:23.960Z,34.77
2023-04-02T17:10:30.735Z,34.13
2023-04-02T17:14:42.313Z,35.76
2023-04-02T17:18:47.355Z,33.92
2023-04-02T17:22:49.206Z,34.58
2023-04-02T17:27:12.341Z,35.50
2023-04-02T17:31:19.315Z,35.13
2023-04-02T17:35:59.383Z,33.89
2023-04-02T17:40:22.020Z,33.99
2023-04-02T17:44:46.371Z,35.47
2023-04-02T17:48:52.256Z,36.50
2023-04-02T17:53:11.064Z,34.07
2023-04-02T17:57:30.880Z,35.11
2023-04-02T18:01:38.301Z,35.05
2023-04-02T18:05:45.641Z,33.95
2023-04-02T18:09:56.129Z,32.98
2023-04-02T18:14:13.096Z,34.58
2023-04-02T18:18:34.398Z,34.99
2023-04-02T18:22:46.977Z,34.42
2023-04-02T18:27:15.433Z,34.23
2023-04-02T18:31:27.939Z,35.98
2023-04-02T18:36:05.121Z,33.09
2023-04-02T18:40:40.248Z,34.08
2023-04-02T18:44:58.387Z,33.58
2023-04-02T18:49:26.599Z,33.08
2023-04-02T18:53:31.015Z,32.07
2023-04-02T18:57:35.989Z,35.21
2023-04-02T19:05:57.335Z,34.90
2023-04-02T19:10:07.335Z,34.98
2023-04-02T19:14:12.598Z,33.74
2023-04-02T19:18:49.244Z,34.17
2023-04-02T19:23:00.130Z,34.01
2023-04-02T19:27:27.138Z,35.24
2023-04-02T19:31:43.793Z,35.47
2023-04-02T19:35:57.291Z,35.12
2023-04-02T19:40:11.528Z,36.60
2023-04-02T19:44:16.197Z,33.54
2023-04-02T19:48:24.633Z,36.50
2023-04-02T19:52:27.270Z,33.67
2023-04-02T19:56:28.584Z,34.76
2023-04-02T20:00:30.038Z,34.14
2023-04-02T20:04:31.551Z,34.41
2023-04-02T20:08:33.188Z,33.19
2023-04-02T20:12:34.534Z,33.45
2023-04-02T20:16:36.914Z,33.00
2023-04-02T20:20:39.212Z,34.57
2023-04-02T20:24:42.537Z,33.51
2023-04-02T20:28:43.864Z,34.67
2023-04-02T20:32:45.728Z,32.22
2023-04-02T20:36:51.496Z,32.61
2023-04-02T20:40:54.774Z,32.45
2023-04-02T20:44:56.100Z,31.73
2023-04-02T20:48:59.107Z,32.51
2023-04-02T20:53:00.892Z,31.20
2023-04-02T20:57:02.978Z,31.35
2023-04-02T21:01:22.840Z,32.63
2023-04-02T21:05:24.297Z,31.49
2023-04-02T21:09:25.690Z,31.86
2023-04-02T21:13:30.348Z,32.38
2023-04-02T21:17:31.728Z,31.46
2023-04-02T21:21:33.438Z,31.82
2023-04-02T21:25:35.068Z,32.43
2023-04-02T21:29:36.634Z,32.11
2023-04-02T21:33:40.904Z,32.74
2023-04-02T21:37:44.147Z,32.31
2023-04-02T21:41:49.943Z,32.05
2023-04-02T21:45:52.044Z,31.96
2023-04-02T21:49:53.344Z,32.77
2023-04-02T21:53:55.578Z,32.79
2023-04-02T21:57:56.877Z,32.23
2023-04-02T22:01:58.459Z,32.29
2023-04-02T22:06:02.223Z,33.06
2023-04-02T22:10:03.887Z,33.35
2023-04-02T22:14:05.844Z,33.92
2023-04-02T22:18:07.199Z,32.06
2023-04-02T22:22:08.625Z,33.26
2023-04-02T22:26:11.902Z,32.40
2023-04-02T22:30:13.445Z,31.97
2023-04-02T22:34:15.021Z,32.04
2023-04-02T22:38:16.349Z,32.05
2023-04-02T22:42:17.685Z,33.38
2023-04-02T22:46:20.297Z,32.94
2023-04-02T22:50:21.864Z,32.53
2023-04-02T22:54:23.249Z,32.55
2023-04-02T22:58:26.469Z,32.80
2023-04-02T23:02:27.831Z,34.48
2023-04-02T23:06:29.353Z,35.87
2023-04-02T23:10:31.015Z,35.23
2023-04-02T23:14:32.420Z,36.39
2023-04-02T23:18:37.974Z,36.97
2023-04-02T23:22:39.334Z,36.61
2023-04-02T23:26:40.769Z,35.25
2023-04-02T23:30:43.348Z,35.73
2023-04-02T23:34:44.739Z,34.38
2023-04-02T23:38:46.053Z,35.13
2023-04-02T23:42:47.397Z,36.83
2023-04-02T23:46:48.757Z,34.86
2023-04-02T23:50:50.285Z,35.66
2023-04-02T23:54:51.663Z,35.61
2023-04-02T23:58:53.052Z,36.22
